Flight Track Log - Related Links

Times and Time Zones

All times are in EDT time to prevent confusion due to time zone crossing. See the EJA982 flight status page for this flight to view local times or setup timezone preferences in your user account.

Time Position Orientation Groundspeed Altitude Reporting Facility
EDT Latitude Longitude Course Direction KTS MPH feet Rate Location/Type
Sun 02:55:11 PM 36.0761 -115.1283 90° East 163 188 3,400  Level Los Angeles Center
Sun 02:56:30 PM 36.0758 -115.0258 90° East 218 251 7,900 3,489 Climbing Los Angeles Center
Sun 02:57:32 PM 36.0489 -114.9383 111° Southeast 284 327 11,600 3,844 Climbing Los Angeles Center
Sun 02:58:38 PM 35.9556 -114.9236 173° South 320 368 16,100 3,532 Climbing Los Angeles Center
Sun 02:59:36 PM 35.9167 -115.0094 241° Southwest 344 396 18,900 1,700 Climbing Los Angeles Center
Sun 03:00:38 PM 35.9158 -115.1461 270° West 394 453 19,500 1,016 Climbing Los Angeles Center
Sun 03:01:40 PM 35.9150 -115.2967 270° West 422 486 21,000 1,403 Climbing Los Angeles Center
Sun 03:02:42 PM 35.9611 -115.4711 288° West 443 510 22,400 1,248 Climbing Los Angeles Center
Sun 03:03:45 PM 36.0017 -115.6189 289° West 461 531 23,600 1,296 Climbing Los Angeles Center
Sun 03:04:47 PM 36.0436 -115.7708 289° West 452 520 25,100 1,597 Climbing Los Angeles Center
Sun 03:05:49 PM 36.0822 -115.9061 289° West 454 522 26,900 1,790 Climbing Los Angeles Center
Sun 03:06:51 PM 36.1294 -116.0803 289° West 446 513 28,800 1,452 Climbing Los Angeles Center
Sun 03:07:53 PM 36.1719 -116.2322 289° West 459 528 29,900 581 Climbing Los Angeles Center
Sun 03:08:55 PM 36.2133 -116.3850 289° West 467 537 30,000 48 Climbing Los Angeles Center
Sun 03:09:57 PM 36.2567 -116.5469 288° West 483 556 30,000  Level Los Angeles Center
Sun 03:10:59 PM 36.3011 -116.7139 288° West 496 571 30,000  Level Los Angeles Center
Sun 03:12:01 PM 36.3478 -116.8839 289° West 508 585 30,000  Level Los Angeles Center
Sun 03:13:03 PM 36.3933 -117.0550 288° West 515 593 30,000  Level Los Angeles Center
Sun 03:14:05 PM 36.4478 -117.2617 288° West 523 602 30,000  Level Los Angeles Center
Sun 03:15:07 PM 36.4828 -117.3956 288° West 519 597 30,000  Level Los Angeles Center
Sun 03:16:10 PM 36.5350 -117.5989 288° West 518 596 30,000  Level Los Angeles Center
Sun 03:17:12 PM 36.5783 -117.7669 288° West 517 595 30,000  Level Los Angeles Center
Sun 03:18:14 PM 36.6225 -117.9378 288° West 517 595 30,000  Level Los Angeles Center
Sun 03:19:16 PM 36.6739 -118.1408 288° West 516 594 30,000  Level Los Angeles Center
Sun 03:20:18 PM 36.7175 -118.3111 288° West 518 596 30,000  Level Los Angeles Center
Sun 03:21:20 PM 36.7606 -118.4817 288° West 518 596 30,000  Level Los Angeles Center
Sun 03:22:22 PM 36.8069 -118.6694 287° West 519 597 30,000  Level Los Angeles Center
Sun 03:23:24 PM 36.8492 -118.8406 287° West 518 596 30,000 -472 Level Los Angeles Center
Sun 03:24:29 PM 36.8911 -119.0183 286° West 522 601 29,000 -1,039 Descending Oakland Center
Sun 03:25:31 PM 36.9339 -119.1928 287° West 528 608 27,800 -1,065 Descending Oakland Center
Sun 03:26:33 PM 36.9753 -119.3642 287° West 520 598 26,800 -1,161 Descending Oakland Center
Sun 03:27:35 PM 37.0247 -119.5681 287° West 514 592 25,400 -1,220 Descending Oakland Center
Sun 03:28:36 PM 37.0639 -119.7367 286° West 508 585 24,300 -878 Descending Oakland Center
Sun 03:29:38 PM 37.1033 -119.8975 287° West 499 574 23,600 -919 Descending Oakland Center
Sun 03:30:40 PM 37.1425 -120.0611 287° West 493 567 22,400 -1,317 Descending Oakland Center
Sun 03:31:41 PM 37.1803 -120.2269 286° West 494 568 20,900 -1,463 Descending Oakland Center
Sun 03:32:43 PM 37.2153 -120.3881 285° West 484 557 19,400 -1,597 Descending Oakland Center
Sun 03:33:45 PM 37.1828 -120.5800 258° West 475 547 17,600 -1,500 Descending Oakland Center
Sun 03:34:47 PM 37.1467 -120.7403 254° West 468 539 16,300 -1,398 Descending Oakland Center
Sun 03:35:58 PM 37.1167 -120.9167 258° West 438 504 14,500 -1,463 Descending Northern Cal TRACON
Sun 03:36:50 PM 37.0997 -121.0322 260° West 434 499 13,300 -1,474 Descending Oakland Center
Sun 03:37:52 PM 37.0831 -121.1931 263° West 436 502 11,700 -1,355 Descending Oakland Center
Sun 03:38:54 PM 37.0681 -121.3361 263° West 422 486 10,500 -927 Descending Oakland Center
Sun 03:39:55 PM 37.0575 -121.4481 263° West 338 389 9,800 -1,268 Descending Oakland Center
Sun 03:40:57 PM 37.0461 -121.5539 262° West 313 360 7,900 -1,790 Descending Oakland Center
Sun 03:41:59 PM 37.0881 -121.6325 304° West 291 335 6,100 -1,377 Descending Oakland Center
Sun 03:42:59 PM 37.1500 -121.7000 319° Northwest 273 314 5,100 -1,200 Descending Northern Cal TRACON
Sun 03:43:59 PM 37.2167 -121.7667 321° Northwest 280 322 3,700 -1,392 Descending Northern Cal TRACON
Sun 03:45:04 PM 37.2714 -121.8336 316° Northwest 272 313 2,200 -1,087 Descending Oakland Center
Sun 03:46:06 PM 37.3194 -121.8839 320° Northwest 244 281 1,400 -1,016 Descending Oakland Center
Sun 03:47:08 PM 37.3517 -121.9203 318° Northwest 187 215 100 -1,258 Descending Oakland Center
Sun 03:49:00 PM 37.3500 -121.9167 North  Level FlightAware Approximate

Login

Don't have an account? Register now (free) for customized features, flight alerts, and more!